sensor_id;sensor_type;location;lat;lon;timestamp;temperature;humidity
8002;DHT22;4046;48.774;8.732;2023-04-24T00:00:55;20.90;85.20
8002;DHT22;4046;48.774;8.732;2023-04-24T00:03:27;20.90;85.20
8002;DHT22;4046;48.774;8.732;2023-04-24T00:05:54;20.90;85.20
8002;DHT22;4046;48.774;8.732;2023-04-24T00:08:20;20.90;85.10
8002;DHT22;4046;48.774;8.732;2023-04-24T00:10:48;20.90;85.30
8002;DHT22;4046;48.774;8.732;2023-04-24T00:13:14;20.90;85.20
8002;DHT22;4046;48.774;8.732;2023-04-24T00:15:40;20.90;85.20
8002;DHT22;4046;48.774;8.732;2023-04-24T00:18:07;20.90;85.30
8002;DHT22;4046;48.774;8.732;2023-04-24T00:20:34;20.90;85.20
8002;DHT22;4046;48.774;8.732;2023-04-24T00:23:01;20.90;85.30
8002;DHT22;4046;48.774;8.732;2023-04-24T00:25:27;20.80;85.20
8002;DHT22;4046;48.774;8.732;2023-04-24T00:27:54;20.80;85.20
8002;DHT22;4046;48.774;8.732;2023-04-24T00:30:20;20.80;85.20
8002;DHT22;4046;48.774;8.732;2023-04-24T00:32:46;20.80;85.20
8002;DHT22;4046;48.774;8.732;2023-04-24T00:35:12;20.90;85.30
8002;DHT22;4046;48.774;8.732;2023-04-24T00:37:39;20.90;85.30
8002;DHT22;4046;48.774;8.732;2023-04-24T00:40:05;20.90;85.20
8002;DHT22;4046;48.774;8.732;2023-04-24T00:42:32;20.90;85.20
8002;DHT22;4046;48.774;8.732;2023-04-24T00:44:59;20.90;85.30
8002;DHT22;4046;48.774;8.732;2023-04-24T00:47:26;20.90;85.20
8002;DHT22;4046;48.774;8.732;2023-04-24T00:49:54;20.90;85.30
8002;DHT22;4046;48.774;8.732;2023-04-24T00:52:20;20.90;85.20
8002;DHT22;4046;48.774;8.732;2023-04-24T00:54:50;20.90;85.20
8002;DHT22;4046;48.774;8.732;2023-04-24T00:57:16;20.90;85.30
8002;DHT22;4046;48.774;8.732;2023-04-24T00:59:44;20.90;85.30
8002;DHT22;4046;48.774;8.732;2023-04-24T01:02:11;20.80;85.10
8002;DHT22;4046;48.774;8.732;2023-04-24T01:04:39;20.80;85.20
8002;DHT22;4046;48.774;8.732;2023-04-24T01:07:06;20.90;85.30
8002;DHT22;4046;48.774;8.732;2023-04-24T01:09:39;20.80;85.20
8002;DHT22;4046;48.774;8.732;2023-04-24T01:12:07;20.90;85.30
8002;DHT22;4046;48.774;8.732;2023-04-24T01:14:33;20.90;85.20
8002;DHT22;4046;48.774;8.732;2023-04-24T01:17:00;20.90;85.20
8002;DHT22;4046;48.774;8.732;2023-04-24T01:19:26;20.90;85.20
8002;DHT22;4046;48.774;8.732;2023-04-24T01:21:54;20.80;85.10
8002;DHT22;4046;48.774;8.732;2023-04-24T01:24:23;20.80;85.20
8002;DHT22;4046;48.774;8.732;2023-04-24T01:26:49;20.80;85.10
8002;DHT22;4046;48.774;8.732;2023-04-24T01:29:16;20.90;85.30
8002;DHT22;4046;48.774;8.732;2023-04-24T01:31:42;20.90;85.20
8002;DHT22;4046;48.774;8.732;2023-04-24T01:34:09;20.90;85.10
8002;DHT22;4046;48.774;8.732;2023-04-24T01:36:35;20.90;85.20
8002;DHT22;4046;48.774;8.732;2023-04-24T01:39:02;20.90;85.20
8002;DHT22;4046;48.774;8.732;2023-04-24T01:41:30;20.90;85.10
8002;DHT22;4046;48.774;8.732;2023-04-24T01:43:57;20.90;85.20
8002;DHT22;4046;48.774;8.732;2023-04-24T01:46:24;20.90;85.20
8002;DHT22;4046;48.774;8.732;2023-04-24T01:48:51;20.80;85.10
8002;DHT22;4046;48.774;8.732;2023-04-24T01:51:18;20.80;85.10
8002;DHT22;4046;48.774;8.732;2023-04-24T01:53:44;20.80;85.10
8002;DHT22;4046;48.774;8.732;2023-04-24T01:56:11;20.80;85.20
8002;DHT22;4046;48.774;8.732;2023-04-24T01:58:37;20.80;85.20
8002;DHT22;4046;48.774;8.732;2023-04-24T02:01:06;20.80;85.20
8002;DHT22;4046;48.774;8.732;2023-04-24T02:03:32;20.80;85.20
8002;DHT22;4046;48.774;8.732;2023-04-24T02:05:58;20.80;85.10
8002;DHT22;4046;48.774;8.732;2023-04-24T02:08:24;20.90;85.20
8002;DHT22;4046;48.774;8.732;2023-04-24T02:10:51;20.80;85.10
8002;DHT22;4046;48.774;8.732;2023-04-24T02:13:17;20.80;85.10
8002;DHT22;4046;48.774;8.732;2023-04-24T02:15:43;20.80;85.20
8002;DHT22;4046;48.774;8.732;2023-04-24T02:18:09;20.80;85.20
8002;DHT22;4046;48.774;8.732;2023-04-24T02:20:37;20.80;85.20
8002;DHT22;4046;48.774;8.732;2023-04-24T02:23:03;20.80;85.20
8002;DHT22;4046;48.774;8.732;2023-04-24T02:25:29;20.80;85.20
8002;DHT22;4046;48.774;8.732;2023-04-24T02:27:56;20.80;85.20
8002;DHT22;4046;48.774;8.732;2023-04-24T02:30:22;20.80;85.10
8002;DHT22;4046;48.774;8.732;2023-04-24T02:32:48;20.80;85.10
8002;DHT22;4046;48.774;8.732;2023-04-24T02:35:15;20.80;85.10
8002;DHT22;4046;48.774;8.732;2023-04-24T02:37:41;20.80;85.10
8002;DHT22;4046;48.774;8.732;2023-04-24T02:40:08;20.80;85.20
8002;DHT22;4046;48.774;8.732;2023-04-24T02:42:34;20.80;85.10
8002;DHT22;4046;48.774;8.732;2023-04-24T02:45:01;20.80;85.10
8002;DHT22;4046;48.774;8.732;2023-04-24T02:47:27;20.80;85.10
8002;DHT22;4046;48.774;8.732;2023-04-24T02:49:53;20.80;85.20
8002;DHT22;4046;48.774;8.732;2023-04-24T02:52:19;20.80;85.20
8002;DHT22;4046;48.774;8.732;2023-04-24T02:54:46;20.80;85.20
8002;DHT22;4046;48.774;8.732;2023-04-24T02:57:12;20.80;85.20
8002;DHT22;4046;48.774;8.732;2023-04-24T02:59:38;20.80;85.20
8002;DHT22;4046;48.774;8.732;2023-04-24T03:02:04;20.80;85.10
8002;DHT22;4046;48.774;8.732;2023-04-24T03:04:31;20.80;85.10
8002;DHT22;4046;48.774;8.732;2023-04-24T03:06:58;20.80;85.10
8002;DHT22;4046;48.774;8.732;2023-04-24T03:09:24;20.80;85.20
8002;DHT22;4046;48.774;8.732;2023-04-24T03:11:51;20.80;85.20
8002;DHT22;4046;48.774;8.732;2023-04-24T03:14:17;20.80;85.20
8002;DHT22;4046;48.774;8.732;2023-04-24T03:16:43;20.80;85.20
8002;DHT22;4046;48.774;8.732;2023-04-24T03:19:09;20.80;85.20
8002;DHT22;4046;48.774;8.732;2023-04-24T03:21:35;20.80;85.20
8002;DHT22;4046;48.774;8.732;2023-04-24T03:24:09;20.80;85.20
8002;DHT22;4046;48.774;8.732;2023-04-24T03:26:35;20.80;85.30
8002;DHT22;4046;48.774;8.732;2023-04-24T03:29:01;20.80;85.20
8002;DHT22;4046;48.774;8.732;2023-04-24T03:31:28;20.80;85.20
8002;DHT22;4046;48.774;8.732;2023-04-24T03:33:54;20.80;85.20
8002;DHT22;4046;48.774;8.732;2023-04-24T03:36:20;20.80;85.10
8002;DHT22;4046;48.774;8.732;2023-04-24T03:38:46;20.80;85.20
8002;DHT22;4046;48.774;8.732;2023-04-24T03:41:12;20.80;85.20
8002;DHT22;4046;48.774;8.732;2023-04-24T03:43:39;20.80;85.20
8002;DHT22;4046;48.774;8.732;2023-04-24T03:46:05;20.80;85.20
8002;DHT22;4046;48.774;8.732;2023-04-24T03:48:31;20.80;85.20
8002;DHT22;4046;48.774;8.732;2023-04-24T03:50:58;20.80;85.20
8002;DHT22;4046;48.774;8.732;2023-04-24T03:53:24;20.80;85.20
8002;DHT22;4046;48.774;8.732;2023-04-24T03:55:50;20.80;85.20
8002;DHT22;4046;48.774;8.732;2023-04-24T03:58:16;20.80;85.10
8002;DHT22;4046;48.774;8.732;2023-04-24T04:00:43;20.80;85.20
8002;DHT22;4046;48.774;8.732;2023-04-24T04:03:10;20.80;85.20
8002;DHT22;4046;48.774;8.732;2023-04-24T04:05:36;20.80;85.20
8002;DHT22;4046;48.774;8.732;2023-04-24T04:08:03;20.80;85.10
8002;DHT22;4046;48.774;8.732;2023-04-24T04:10:29;20.80;85.10
8002;DHT22;4046;48.774;8.732;2023-04-24T04:12:55;20.80;85.10
8002;DHT22;4046;48.774;8.732;2023-04-24T04:15:21;20.80;85.20
8002;DHT22;4046;48.774;8.732;2023-04-24T04:17:48;20.80;85.10
8002;DHT22;4046;48.774;8.732;2023-04-24T04:20:14;20.80;85.10
8002;DHT22;4046;48.774;8.732;2023-04-24T04:22:40;20.80;85.10
8002;DHT22;4046;48.774;8.732;2023-04-24T04:25:06;20.80;85.10
8002;DHT22;4046;48.774;8.732;2023-04-24T04:27:34;20.80;85.10
8002;DHT22;4046;48.774;8.732;2023-04-24T04:30:01;20.80;85.10
8002;DHT22;4046;48.774;8.732;2023-04-24T04:32:34;20.80;85.20
8002;DHT22;4046;48.774;8.732;2023-04-24T04:35:01;20.80;85.10
8002;DHT22;4046;48.774;8.732;2023-04-24T04:37:31;20.80;85.10
8002;DHT22;4046;48.774;8.732;2023-04-24T04:39:59;20.80;85.10
8002;DHT22;4046;48.774;8.732;2023-04-24T04:42:26;20.80;85.10
8002;DHT22;4046;48.774;8.732;2023-04-24T04:44:56;20.80;85.10
8002;DHT22;4046;48.774;8.732;2023-04-24T04:47:23;20.80;85.10
8002;DHT22;4046;48.774;8.732;2023-04-24T04:49:50;20.80;85.10
8002;DHT22;4046;48.774;8.732;2023-04-24T04:52:18;20.80;85.10
8002;DHT22;4046;48.774;8.732;2023-04-24T04:54:44;20.80;85.10
8002;DHT22;4046;48.774;8.732;2023-04-24T04:57:10;20.80;85.10
8002;DHT22;4046;48.774;8.732;2023-04-24T04:59:38;20.80;85.10
8002;DHT22;4046;48.774;8.732;2023-04-24T05:02:04;20.80;85.00
8002;DHT22;4046;48.774;8.732;2023-04-24T05:04:30;20.80;85.00
8002;DHT22;4046;48.774;8.732;2023-04-24T05:06:57;20.80;85.00
8002;DHT22;4046;48.774;8.732;2023-04-24T05:09:23;20.80;85.00
8002;DHT22;4046;48.774;8.732;2023-04-24T05:11:49;20.80;85.00
8002;DHT22;4046;48.774;8.732;2023-04-24T05:14:15;20.80;85.00
8002;DHT22;4046;48.774;8.732;2023-04-24T05:16:43;20.80;85.00
8002;DHT22;4046;48.774;8.732;2023-04-24T05:19:10;20.80;85.00
8002;DHT22;4046;48.774;8.732;2023-04-24T05:21:37;20.80;85.00
8002;DHT22;4046;48.774;8.732;2023-04-24T05:24:05;20.80;84.90
8002;DHT22;4046;48.774;8.732;2023-04-24T05:26:32;20.80;84.90
8002;DHT22;4046;48.774;8.732;2023-04-24T05:28:58;20.80;84.90
8002;DHT22;4046;48.774;8.732;2023-04-24T05:31:24;20.80;84.90
8002;DHT22;4046;48.774;8.732;2023-04-24T05:33:51;20.80;84.80
8002;DHT22;4046;48.774;8.732;2023-04-24T05:36:17;20.80;84.90
8002;DHT22;4046;48.774;8.732;2023-04-24T05:38:43;20.80;84.90
8002;DHT22;4046;48.774;8.732;2023-04-24T05:41:12;20.80;84.90
8002;DHT22;4046;48.774;8.732;2023-04-24T05:43:38;20.80;84.90
8002;DHT22;4046;48.774;8.732;2023-04-24T05:46:04;20.80;84.90
8002;DHT22;4046;48.774;8.732;2023-04-24T05:48:31;20.80;84.90
8002;DHT22;4046;48.774;8.732;2023-04-24T05:50:57;20.80;84.80
8002;DHT22;4046;48.774;8.732;2023-04-24T05:53:23;20.80;84.80
8002;DHT22;4046;48.774;8.732;2023-04-24T05:55:50;20.80;84.80
8002;DHT22;4046;48.774;8.732;2023-04-24T05:58:16;20.90;84.80
8002;DHT22;4046;48.774;8.732;2023-04-24T06:00:42;20.90;84.80
8002;DHT22;4046;48.774;8.732;2023-04-24T06:03:10;20.90;84.80
8002;DHT22;4046;48.774;8.732;2023-04-24T06:05:36;20.90;84.70
8002;DHT22;4046;48.774;8.732;2023-04-24T06:08:02;20.90;84.60
8002;DHT22;4046;48.774;8.732;2023-04-24T06:10:29;20.90;84.60
8002;DHT22;4046;48.774;8.732;2023-04-24T06:12:55;21.00;84.60
8002;DHT22;4046;48.774;8.732;2023-04-24T06:15:28;21.00;84.60
8002;DHT22;4046;48.774;8.732;2023-04-24T06:17:55;21.00;84.50
8002;DHT22;4046;48.774;8.732;2023-04-24T06:20:21;21.00;84.60
8002;DHT22;4046;48.774;8.732;2023-04-24T06:22:48;21.00;84.50
8002;DHT22;4046;48.774;8.732;2023-04-24T06:25:14;21.00;84.50
8002;DHT22;4046;48.774;8.732;2023-04-24T06:27:40;21.00;84.40
8002;DHT22;4046;48.774;8.732;2023-04-24T06:30:07;21.10;84.50
8002;DHT22;4046;48.774;8.732;2023-04-24T06:32:33;21.10;84.40
8002;DHT22;4046;48.774;8.732;2023-04-24T06:34:59;21.10;84.30
8002;DHT22;4046;48.774;8.732;2023-04-24T06:37:26;21.10;84.30
8002;DHT22;4046;48.774;8.732;2023-04-24T06:39:52;21.10;84.20
8002;DHT22;4046;48.774;8.732;2023-04-24T06:42:18;21.20;84.20
8002;DHT22;4046;48.774;8.732;2023-04-24T06:44:46;21.20;84.20
8002;DHT22;4046;48.774;8.732;2023-04-24T06:47:12;21.20;84.10
8002;DHT22;4046;48.774;8.732;2023-04-24T06:49:42;21.20;84.10
8002;DHT22;4046;48.774;8.732;2023-04-24T06:52:08;21.30;84.10
8002;DHT22;4046;48.774;8.732;2023-04-24T06:54:35;21.30;84.90
8002;DHT22;4046;48.774;8.732;2023-04-24T06:57:01;21.30;84.00
8002;DHT22;4046;48.774;8.732;2023-04-24T06:59:29;21.30;84.00
8002;DHT22;4046;48.774;8.732;2023-04-24T07:01:56;21.30;84.10
8002;DHT22;4046;48.774;8.732;2023-04-24T07:04:22;21.30;84.00
8002;DHT22;4046;48.774;8.732;2023-04-24T07:06:50;21.30;84.00
8002;DHT22;4046;48.774;8.732;2023-04-24T07:09:17;21.40;84.10
8002;DHT22;4046;48.774;8.732;2023-04-24T07:11:45;21.30;83.90
8002;DHT22;4046;48.774;8.732;2023-04-24T07:14:11;21.30;84.00
8002;DHT22;4046;48.774;8.732;2023-04-24T07:16:38;21.30;83.90
8002;DHT22;4046;48.774;8.732;2023-04-24T07:19:05;21.30;83.90
8002;DHT22;4046;48.774;8.732;2023-04-24T07:21:31;21.40;83.90
8002;DHT22;4046;48.774;8.732;2023-04-24T07:23:58;21.40;83.80
8002;DHT22;4046;48.774;8.732;2023-04-24T07:26:26;21.40;83.80
8002;DHT22;4046;48.774;8.732;2023-04-24T07:28:52;21.40;83.80
8002;DHT22;4046;48.774;8.732;2023-04-24T07:31:19;21.40;83.80
8002;DHT22;4046;48.774;8.732;2023-04-24T07:33:45;21.40;83.70
8002;DHT22;4046;48.774;8.732;2023-04-24T07:36:11;21.40;83.80
8002;DHT22;4046;48.774;8.732;2023-04-24T07:38:47;21.50;83.70
8002;DHT22;4046;48.774;8.732;2023-04-24T07:41:17;21.50;83.70
8002;DHT22;4046;48.774;8.732;2023-04-24T07:43:44;21.40;83.50
8002;DHT22;4046;48.774;8.732;2023-04-24T07:46:11;21.40;83.60
8002;DHT22;4046;48.774;8.732;2023-04-24T07:48:37;21.40;83.40
8002;DHT22;4046;48.774;8.732;2023-04-24T07:51:04;21.40;84.20
8002;DHT22;4046;48.774;8.732;2023-04-24T07:53:30;21.40;83.40
8002;DHT22;4046;48.774;8.732;2023-04-24T07:55:57;21.40;83.50
8002;DHT22;4046;48.774;8.732;2023-04-24T07:58:23;21.40;83.50
8002;DHT22;4046;48.774;8.732;2023-04-24T08:00:50;21.40;83.40
8002;DHT22;4046;48.774;8.732;2023-04-24T08:03:17;21.40;83.30
8002;DHT22;4046;48.774;8.732;2023-04-24T08:05:45;21.40;83.20
8002;DHT22;4046;48.774;8.732;2023-04-24T08:08:11;21.40;83.20
8002;DHT22;4046;48.774;8.732;2023-04-24T08:10:37;21.40;83.20
8002;DHT22;4046;48.774;8.732;2023-04-24T08:13:04;21.40;83.30
8002;DHT22;4046;48.774;8.732;2023-04-24T08:15:30;21.30;83.30
8002;DHT22;4046;48.774;8.732;2023-04-24T08:17:57;21.30;83.50
8002;DHT22;4046;48.774;8.732;2023-04-24T08:20:23;21.20;83.40
8002;DHT22;4046;48.774;8.732;2023-04-24T08:22:49;21.20;83.50
8002;DHT22;4046;48.774;8.732;2023-04-24T08:25:16;21.20;83.60
8002;DHT22;4046;48.774;8.732;2023-04-24T08:27:43;21.20;83.60
8002;DHT22;4046;48.774;8.732;2023-04-24T08:30:09;21.20;83.50
8002;DHT22;4046;48.774;8.732;2023-04-24T08:32:36;21.20;83.50
8002;DHT22;4046;48.774;8.732;2023-04-24T08:35:03;21.20;83.50
8002;DHT22;4046;48.774;8.732;2023-04-24T08:37:29;21.20;83.50
8002;DHT22;4046;48.774;8.732;2023-04-24T08:39:56;21.30;83.60
8002;DHT22;4046;48.774;8.732;2023-04-24T08:42:22;21.20;83.50
8002;DHT22;4046;48.774;8.732;2023-04-24T08:44:49;21.20;83.60
8002;DHT22;4046;48.774;8.732;2023-04-24T08:47:16;21.20;83.60
8002;DHT22;4046;48.774;8.732;2023-04-24T08:49:43;21.20;83.60
8002;DHT22;4046;48.774;8.732;2023-04-24T08:52:09;21.20;83.70
8002;DHT22;4046;48.774;8.732;2023-04-24T08:54:36;21.20;83.60
8002;DHT22;4046;48.774;8.732;2023-04-24T08:57:03;21.20;83.60
8002;DHT22;4046;48.774;8.732;2023-04-24T08:59:30;21.20;83.50
8002;DHT22;4046;48.774;8.732;2023-04-24T09:01:58;21.20;83.50
8002;DHT22;4046;48.774;8.732;2023-04-24T09:04:24;21.20;83.50
8002;DHT22;4046;48.774;8.732;2023-04-24T09:06:55;21.20;83.50
8002;DHT22;4046;48.774;8.732;2023-04-24T09:09:23;21.20;83.30
8002;DHT22;4046;48.774;8.732;2023-04-24T09:11:49;21.20;83.40
8002;DHT22;4046;48.774;8.732;2023-04-24T09:14:17;21.20;83.30
8002;DHT22;4046;48.774;8.732;2023-04-24T09:16:43;21.20;83.30
8002;DHT22;4046;48.774;8.732;2023-04-24T09:19:09;21.30;83.30
8002;DHT22;4046;48.774;8.732;2023-04-24T09:21:36;21.30;83.20
8002;DHT22;4046;48.774;8.732;2023-04-24T09:24:04;21.30;83.20
8002;DHT22;4046;48.774;8.732;2023-04-24T09:26:32;21.30;83.20
8002;DHT22;4046;48.774;8.732;2023-04-24T09:28:59;21.30;83.20
8002;DHT22;4046;48.774;8.732;2023-04-24T09:31:28;21.30;83.10
8002;DHT22;4046;48.774;8.732;2023-04-24T09:33:59;21.30;83.10
8002;DHT22;4046;48.774;8.732;2023-04-24T09:36:30;21.20;83.10
8002;DHT22;4046;48.774;8.732;2023-04-24T09:39:00;21.20;83.10
8002;DHT22;4046;48.774;8.732;2023-04-24T09:41:27;21.30;83.00
8002;DHT22;4046;48.774;8.732;2023-04-24T09:43:54;21.40;83.10
8002;DHT22;4046;48.774;8.732;2023-04-24T09:46:28;21.40;83.20
8002;DHT22;4046;48.774;8.732;2023-04-24T09:48:54;21.40;83.20
8002;DHT22;4046;48.774;8.732;2023-04-24T09:51:34;21.40;83.10
8002;DHT22;4046;48.774;8.732;2023-04-24T09:54:03;21.40;83.10
8002;DHT22;4046;48.774;8.732;2023-04-24T09:56:33;21.50;83.00
8002;DHT22;4046;48.774;8.732;2023-04-24T09:59:06;21.50;83.00
8002;DHT22;4046;48.774;8.732;2023-04-24T10:01:33;21.50;82.90
8002;DHT22;4046;48.774;8.732;2023-04-24T10:04:00;21.50;83.00
8002;DHT22;4046;48.774;8.732;2023-04-24T10:06:36;21.50;82.90
8002;DHT22;4046;48.774;8.732;2023-04-24T10:09:02;21.50;83.00
8002;DHT22;4046;48.774;8.732;2023-04-24T10:11:30;21.50;82.80
8002;DHT22;4046;48.774;8.732;2023-04-24T10:13:56;21.50;82.90
8002;DHT22;4046;48.774;8.732;2023-04-24T10:16:23;21.50;82.90
8002;DHT22;4046;48.774;8.732;2023-04-24T10:18:50;21.50;82.80
8002;DHT22;4046;48.774;8.732;2023-04-24T10:21:17;21.50;82.70
8002;DHT22;4046;48.774;8.732;2023-04-24T10:23:43;21.50;82.70
8002;DHT22;4046;48.774;8.732;2023-04-24T10:26:13;21.50;82.80
8002;DHT22;4046;48.774;8.732;2023-04-24T10:28:45;21.50;82.80
8002;DHT22;4046;48.774;8.732;2023-04-24T10:31:16;21.50;82.80
8002;DHT22;4046;48.774;8.732;2023-04-24T10:33:43;21.40;82.80
8002;DHT22;4046;48.774;8.732;2023-04-24T10:36:13;21.40;82.80
8002;DHT22;4046;48.774;8.732;2023-04-24T10:38:41;21.40;82.90
8002;DHT22;4046;48.774;8.732;2023-04-24T10:41:13;21.30;83.00
8002;DHT22;4046;48.774;8.732;2023-04-24T10:43:46;21.30;83.00
8002;DHT22;4046;48.774;8.732;2023-04-24T10:46:19;21.20;82.90
8002;DHT22;4046;48.774;8.732;2023-04-24T10:48:55;21.20;82.90
8002;DHT22;4046;48.774;8.732;2023-04-24T10:51:23;21.20;82.80
8002;DHT22;4046;48.774;8.732;2023-04-24T10:53:51;21.20;82.80
8002;DHT22;4046;48.774;8.732;2023-04-24T10:56:18;21.30;82.80
8002;DHT22;4046;48.774;8.732;2023-04-24T10:58:50;21.30;82.70
8002;DHT22;4046;48.774;8.732;2023-04-24T11:01:25;21.40;82.70
8002;DHT22;4046;48.774;8.732;2023-04-24T11:03:57;21.40;82.70
8002;DHT22;4046;48.774;8.732;2023-04-24T11:06:34;21.40;82.50
8002;DHT22;4046;48.774;8.732;2023-04-24T11:09:06;21.30;82.50
8002;DHT22;4046;48.774;8.732;2023-04-24T11:11:34;21.30;82.60
8002;DHT22;4046;48.774;8.732;2023-04-24T11:14:03;21.20;82.50
8002;DHT22;4046;48.774;8.732;2023-04-24T11:16:44;21.20;82.70
8002;DHT22;4046;48.774;8.732;2023-04-24T11:21:42;21.20;82.80
8002;DHT22;4046;48.774;8.732;2023-04-24T11:27:18;21.40;82.70
8002;DHT22;4046;48.774;8.732;2023-04-24T11:35:00;21.40;82.40
8002;DHT22;4046;48.774;8.732;2023-04-24T11:37:44;21.40;82.50
8002;DHT22;4046;48.774;8.732;2023-04-24T11:40:18;21.30;82.50
8002;DHT22;4046;48.774;8.732;2023-04-24T11:42:50;21.30;82.50
8002;DHT22;4046;48.774;8.732;2023-04-24T11:45:22;21.30;82.60
8002;DHT22;4046;48.774;8.732;2023-04-24T11:47:48;21.30;82.60
8002;DHT22;4046;48.774;8.732;2023-04-24T11:50:17;21.20;82.50
8002;DHT22;4046;48.774;8.732;2023-04-24T11:52:46;21.20;83.30
8002;DHT22;4046;48.774;8.732;2023-04-24T11:55:32;21.20;82.50
8002;DHT22;4046;48.774;8.732;2023-04-24T11:57:59;21.20;82.20
8002;DHT22;4046;48.774;8.732;2023-04-24T12:00:28;21.20;82.20
8002;DHT22;4046;48.774;8.732;2023-04-24T12:03:09;21.20;82.20
8002;DHT22;4046;48.774;8.732;2023-04-24T12:05:36;21.20;82.30
8002;DHT22;4046;48.774;8.732;2023-04-24T12:08:02;21.20;82.30
8002;DHT22;4046;48.774;8.732;2023-04-24T12:10:29;21.30;82.40
8002;DHT22;4046;48.774;8.732;2023-04-24T12:12:57;21.30;82.30
8002;DHT22;4046;48.774;8.732;2023-04-24T12:15:25;21.30;82.30
8002;DHT22;4046;48.774;8.732;2023-04-24T12:17:52;21.30;82.30
8002;DHT22;4046;48.774;8.732;2023-04-24T12:20:24;21.20;82.20
8002;DHT22;4046;48.774;8.732;2023-04-24T12:22:53;21.20;82.40
8002;DHT22;4046;48.774;8.732;2023-04-24T12:25:22;21.20;82.40
8002;DHT22;4046;48.774;8.732;2023-04-24T12:28:09;21.20;82.50
8002;DHT22;4046;48.774;8.732;2023-04-24T12:30:48;21.10;82.40
8002;DHT22;4046;48.774;8.732;2023-04-24T12:33:21;21.10;82.50
8002;DHT22;4046;48.774;8.732;2023-04-24T12:35:51;21.10;82.60
8002;DHT22;4046;48.774;8.732;2023-04-24T12:38:22;21.10;82.60
8002;DHT22;4046;48.774;8.732;2023-04-24T12:41:04;21.20;82.70
8002;DHT22;4046;48.774;8.732;2023-04-24T12:43:31;21.10;82.60
8002;DHT22;4046;48.774;8.732;2023-04-24T12:45:58;21.10;82.60
8002;DHT22;4046;48.774;8.732;2023-04-24T12:48:26;21.10;82.70
8002;DHT22;4046;48.774;8.732;2023-04-24T12:50:52;21.10;82.70
8002;DHT22;4046;48.774;8.732;2023-04-24T12:53:19;21.20;82.80
8002;DHT22;4046;48.774;8.732;2023-04-24T12:55:45;21.20;82.60
8002;DHT22;4046;48.774;8.732;2023-04-24T12:58:13;21.20;82.60
8002;DHT22;4046;48.774;8.732;2023-04-24T13:00:39;21.20;82.70
8002;DHT22;4046;48.774;8.732;2023-04-24T13:03:05;21.20;82.70
8002;DHT22;4046;48.774;8.732;2023-04-24T13:05:32;21.20;82.70
8002;DHT22;4046;48.774;8.732;2023-04-24T13:07:58;21.20;82.80
8002;DHT22;4046;48.774;8.732;2023-04-24T13:10:24;21.10;82.70
8002;DHT22;4046;48.774;8.732;2023-04-24T13:12:50;21.10;82.80
8002;DHT22;4046;48.774;8.732;2023-04-24T13:15:17;21.10;82.90
8002;DHT22;4046;48.774;8.732;2023-04-24T13:17:43;21.10;82.90
8002;DHT22;4046;48.774;8.732;2023-04-24T13:20:09;21.10;82.90
8002;DHT22;4046;48.774;8.732;2023-04-24T13:22:36;21.20;82.90
8002;DHT22;4046;48.774;8.732;2023-04-24T13:25:03;21.20;82.80
8002;DHT22;4046;48.774;8.732;2023-04-24T13:27:31;21.30;82.90
8002;DHT22;4046;48.774;8.732;2023-04-24T13:29:58;21.30;82.80
8002;DHT22;4046;48.774;8.732;2023-04-24T13:32:24;21.30;82.90
8002;DHT22;4046;48.774;8.732;2023-04-24T13:34:51;21.30;82.80
8002;DHT22;4046;48.774;8.732;2023-04-24T13:37:17;21.20;82.70
8002;DHT22;4046;48.774;8.732;2023-04-24T13:39:43;21.20;82.80
8002;DHT22;4046;48.774;8.732;2023-04-24T13:42:09;21.20;82.80
8002;DHT22;4046;48.774;8.732;2023-04-24T13:44:37;21.30;82.90
8002;DHT22;4046;48.774;8.732;2023-04-24T13:47:04;21.30;82.80
8002;DHT22;4046;48.774;8.732;2023-04-24T13:49:30;21.30;82.80
8002;DHT22;4046;48.774;8.732;2023-04-24T13:51:56;21.40;83.60
8002;DHT22;4046;48.774;8.732;2023-04-24T13:54:22;21.40;82.80
8002;DHT22;4046;48.774;8.732;2023-04-24T13:56:52;21.40;82.80
8002;DHT22;4046;48.774;8.732;2023-04-24T13:59:19;21.30;82.70
8002;DHT22;4046;48.774;8.732;2023-04-24T14:01:46;21.30;82.80
8002;DHT22;4046;48.774;8.732;2023-04-24T14:04:13;21.30;82.70
8002;DHT22;4046;48.774;8.732;2023-04-24T14:06:39;21.30;82.70
8002;DHT22;4046;48.774;8.732;2023-04-24T14:09:06;21.30;82.80
8002;DHT22;4046;48.774;8.732;2023-04-24T14:11:33;21.30;82.80
8002;DHT22;4046;48.774;8.732;2023-04-24T14:13:59;21.30;82.80
8002;DHT22;4046;48.774;8.732;2023-04-24T14:16:26;21.30;82.80
8002;DHT22;4046;48.774;8.732;2023-04-24T14:18:52;21.30;82.70
8002;DHT22;4046;48.774;8.732;2023-04-24T14:21:18;21.30;82.70
8002;DHT22;4046;48.774;8.732;2023-04-24T14:23:44;21.30;82.70
8002;DHT22;4046;48.774;8.732;2023-04-24T14:26:11;21.30;82.70
8002;DHT22;4046;48.774;8.732;2023-04-24T14:28:37;21.30;82.70
8002;DHT22;4046;48.774;8.732;2023-04-24T14:31:04;21.30;82.70
8002;DHT22;4046;48.774;8.732;2023-04-24T14:33:30;21.30;82.80
8002;DHT22;4046;48.774;8.732;2023-04-24T14:35:57;21.20;82.80
8002;DHT22;4046;48.774;8.732;2023-04-24T14:38:23;21.20;82.80
8002;DHT22;4046;48.774;8.732;2023-04-24T14:40:49;21.20;82.80
8002;DHT22;4046;48.774;8.732;2023-04-24T14:43:15;21.10;82.80
8002;DHT22;4046;48.774;8.732;2023-04-24T14:45:41;21.10;82.90
8002;DHT22;4046;48.774;8.732;2023-04-24T14:48:08;21.10;82.90
8002;DHT22;4046;48.774;8.732;2023-04-24T14:50:35;21.10;83.70
8002;DHT22;4046;48.774;8.732;2023-04-24T14:53:01;21.10;83.00
8002;DHT22;4046;48.774;8.732;2023-04-24T14:55:28;21.10;83.00
8002;DHT22;4046;48.774;8.732;2023-04-24T14:57:55;21.00;83.00
8002;DHT22;4046;48.774;8.732;2023-04-24T15:00:21;21.00;83.00
8002;DHT22;4046;48.774;8.732;2023-04-24T15:02:49;21.00;83.10
8002;DHT22;4046;48.774;8.732;2023-04-24T15:05:15;21.00;83.10
8002;DHT22;4046;48.774;8.732;2023-04-24T15:07:41;21.00;83.10
8002;DHT22;4046;48.774;8.732;2023-04-24T15:10:08;21.00;83.10
8002;DHT22;4046;48.774;8.732;2023-04-24T15:12:35;21.00;83.10
8002;DHT22;4046;48.774;8.732;2023-04-24T15:15:01;21.00;83.10
8002;DHT22;4046;48.774;8.732;2023-04-24T15:17:27;21.00;83.10
8002;DHT22;4046;48.774;8.732;2023-04-24T15:19:53;21.00;83.20
8002;DHT22;4046;48.774;8.732;2023-04-24T15:22:19;21.00;83.20
8002;DHT22;4046;48.774;8.732;2023-04-24T15:24:46;21.00;83.20
8002;DHT22;4046;48.774;8.732;2023-04-24T15:27:12;21.00;83.20
8002;DHT22;4046;48.774;8.732;2023-04-24T15:29:38;21.00;83.20
8002;DHT22;4046;48.774;8.732;2023-04-24T15:32:05;21.00;83.10
8002;DHT22;4046;48.774;8.732;2023-04-24T15:34:31;21.00;83.20
8002;DHT22;4046;48.774;8.732;2023-04-24T15:36:58;21.00;83.20
8002;DHT22;4046;48.774;8.732;2023-04-24T15:39:25;21.00;83.10
8002;DHT22;4046;48.774;8.732;2023-04-24T15:41:52;21.00;83.20
8002;DHT22;4046;48.774;8.732;2023-04-24T15:44:20;21.00;83.20
8002;DHT22;4046;48.774;8.732;2023-04-24T15:46:47;21.00;83.10
8002;DHT22;4046;48.774;8.732;2023-04-24T15:49:13;21.00;83.10
8002;DHT22;4046;48.774;8.732;2023-04-24T15:51:39;21.00;83.10
8002;DHT22;4046;48.774;8.732;2023-04-24T15:54:05;21.00;83.10
8002;DHT22;4046;48.774;8.732;2023-04-24T15:56:32;21.00;83.10
8002;DHT22;4046;48.774;8.732;2023-04-24T15:58:58;21.00;83.10
8002;DHT22;4046;48.774;8.732;2023-04-24T16:01:25;21.00;83.10
8002;DHT22;4046;48.774;8.732;2023-04-24T16:03:51;21.10;83.10
8002;DHT22;4046;48.774;8.732;2023-04-24T16:06:18;21.10;83.10
8002;DHT22;4046;48.774;8.732;2023-04-24T16:08:44;21.10;83.00
8002;DHT22;4046;48.774;8.732;2023-04-24T16:11:11;21.10;83.00
8002;DHT22;4046;48.774;8.732;2023-04-24T16:13:37;21.10;82.90